createdAt,value
2019-04-21T00:00:29.803Z,13.06
2019-04-21T00:03:07.448Z,13.07
2019-04-21T00:05:52.410Z,13.11
2019-04-21T00:08:27.803Z,13.21
2019-04-21T00:10:56.743Z,13.15
2019-04-21T00:13:20.471Z,12.97
2019-04-21T00:15:42.060Z,12.80
2019-04-21T00:18:19.102Z,12.55
2019-04-21T00:20:53.063Z,12.39
2019-04-21T00:23:39.723Z,12.11
2019-04-21T00:26:01.963Z,12.01
2019-04-21T00:28:42.398Z,11.85
2019-04-21T00:31:13.866Z,11.76
2019-04-21T00:33:28.853Z,11.59
2019-04-21T00:36:05.099Z,11.62
2019-04-21T00:38:59.095Z,11.57
2019-04-21T00:41:19.534Z,11.51
2019-04-21T00:43:46.120Z,11.47
2019-04-21T00:46:09.920Z,11.48
2019-04-21T00:48:53.971Z,11.55
2019-04-21T00:51:36.053Z,11.62
2019-04-21T00:54:07.038Z,11.61
2019-04-21T00:56:27.501Z,11.61
2019-04-21T00:58:59.376Z,11.44
2019-04-21T01:01:32.819Z,11.54
2019-04-21T01:04:06.592Z,11.48
2019-04-21T01:06:38.228Z,11.61
2019-04-21T01:09:05.275Z,11.35
2019-04-21T01:11:42.160Z,11.28
2019-04-21T01:14:11.780Z,11.21
2019-04-21T01:16:39.732Z,11.26
2019-04-21T01:19:12.103Z,11.32
2019-04-21T01:21:20.530Z,11.29
2019-04-21T01:23:50.766Z,11.42
2019-04-21T01:26:34.001Z,11.48
2019-04-21T01:29:06.984Z,11.52
2019-04-21T01:31:37.631Z,11.50
2019-04-21T01:34:15.037Z,11.42
2019-04-21T01:36:45.829Z,11.36
2019-04-21T01:39:19.605Z,11.41
2019-04-21T01:41:55.517Z,11.47
2019-04-21T01:44:25.752Z,11.40
2019-04-21T01:46:45.801Z,11.42
2019-04-21T01:49:11.576Z,11.35
2019-04-21T01:52:03.096Z,11.14
2019-04-21T01:55:00.325Z,11.06
2019-04-21T01:57:33.157Z,10.93
2019-04-21T01:59:57.085Z,10.90
2019-04-21T02:05:19.526Z,10.54
2019-04-21T02:07:40.559Z,10.41
2019-04-21T02:10:11.534Z,10.36
2019-04-21T02:12:45.943Z,10.28
2019-04-21T02:15:16.968Z,10.27
2019-04-21T02:17:49.894Z,10.36
2019-04-21T02:20:08.133Z,10.33
2019-04-21T02:23:07.285Z,10.46
2019-04-21T02:25:23.130Z,10.38
2019-04-21T02:27:50.386Z,10.38
2019-04-21T02:30:29.404Z,10.37
2019-04-21T02:35:38.454Z,10.23
2019-04-21T02:38:09.184Z,10.20
2019-04-21T02:40:38.495Z,10.14
2019-04-21T02:43:50.240Z,10.22
2019-04-21T02:46:19.398Z,10.35
2019-04-21T02:48:45.036Z,10.47
2019-04-21T02:51:23.504Z,10.70
2019-04-21T02:54:28.690Z,10.72
2019-04-21T02:56:18.071Z,10.74
2019-04-21T02:59:02.270Z,10.77
2019-04-21T03:01:40.069Z,10.80
2019-04-21T03:07:11.310Z,10.87
2019-04-21T03:14:46.473Z,10.98
2019-04-21T03:17:09.612Z,10.98
2019-04-21T03:19:46.111Z,11.03
2019-04-21T03:22:20.004Z,11.06
2019-04-21T03:24:53.999Z,11.06
2019-04-21T03:27:17.259Z,10.97
2019-04-21T03:37:16.781Z,10.93
2019-04-21T03:39:44.942Z,10.79
2019-04-21T03:47:22.949Z,10.69
2019-04-21T03:52:19.367Z,10.72
2019-04-21T04:01:02.805Z,10.26
2019-04-21T04:06:28.036Z,10.25
2019-04-21T04:11:45.644Z,10.11
2019-04-21T04:14:10.064Z,10.06
2019-04-21T04:18:57.824Z,9.65
2019-04-21T04:21:41.500Z,9.47
2019-04-21T04:24:05.029Z,9.28
2019-04-21T04:31:37.585Z,8.92
2019-04-21T04:34:16.202Z,8.92
2019-04-21T04:49:49.622Z,9.21
2019-04-21T04:52:31.386Z,9.75
2019-04-21T05:02:37.717Z,10.74
2019-04-21T05:09:59.749Z,10.94
2019-04-21T05:12:15.889Z,11.05
2019-04-21T05:14:53.324Z,11.03
2019-04-21T05:20:03.636Z,11.18
2019-04-21T05:22:21.916Z,11.27
2019-04-21T05:24:44.036Z,11.46
2019-04-21T05:27:34.641Z,11.54
2019-04-21T05:30:20.599Z,11.55
2019-04-21T05:32:57.599Z,11.67
2019-04-21T05:35:43.287Z,11.64
2019-04-21T05:38:17.157Z,11.77
2019-04-21T05:40:41.438Z,11.93
2019-04-21T05:43:26.385Z,11.95
2019-04-21T05:45:52.002Z,12.15
2019-04-21T05:48:35.159Z,12.58
2019-04-21T05:50:58.903Z,13.33
2019-04-21T05:53:53.474Z,13.80
2019-04-21T05:56:20.702Z,13.96
2019-04-21T05:58:39.153Z,14.40
2019-04-21T06:03:44.771Z,15.06
2019-04-21T06:08:49.642Z,15.82
2019-04-21T06:11:19.234Z,16.56
2019-04-21T06:16:14.025Z,17.39
2019-04-21T06:18:53.278Z,17.50
2019-04-21T06:21:16.535Z,18.64
2019-04-21T06:23:55.521Z,18.64
2019-04-21T06:28:54.568Z,20.41
2019-04-21T06:31:33.786Z,20.12
2019-04-21T06:34:11.137Z,21.07
2019-04-21T06:39:10.272Z,20.48
2019-04-21T06:41:34.014Z,21.79
2019-04-21T06:49:25.132Z,23.12
2019-04-21T06:51:58.200Z,22.77
2019-04-21T06:54:29.207Z,22.73
2019-04-21T06:59:09.460Z,24.52
2019-04-21T07:02:18.983Z,24.87
2019-04-21T07:04:31.228Z,25.71
2019-04-21T07:06:50.007Z,24.90
2019-04-21T07:09:23.253Z,25.26
2019-04-21T07:11:50.412Z,26.57
2019-04-21T07:14:34.655Z,27.47
2019-04-21T07:19:33.278Z,27.03
2019-04-21T07:21:52.543Z,27.37
2019-04-21T07:24:25.121Z,26.40
2019-04-21T07:26:57.173Z,27.46
2019-04-21T07:29:27.163Z,26.97
2019-04-21T07:32:05.084Z,27.25
2019-04-21T07:34:36.356Z,27.77
2019-04-21T07:36:58.928Z,27.00
2019-04-21T07:39:29.995Z,28.55
2019-04-21T07:41:59.316Z,28.17
2019-04-21T07:44:29.073Z,28.58
2019-04-21T07:46:57.310Z,28.23
2019-04-21T07:50:03.476Z,27.96
2019-04-21T07:53:03.662Z,28.64
2019-04-21T07:57:54.842Z,27.74
2019-04-21T08:00:40.832Z,28.22
2019-04-21T08:03:01.433Z,29.11
2019-04-21T08:05:35.244Z,29.99
2019-04-21T08:07:59.700Z,30.70
2019-04-21T08:10:33.284Z,30.92
2019-04-21T08:13:14.688Z,31.48
2019-04-21T08:15:42.687Z,32.22
2019-04-21T08:18:07.780Z,32.56
2019-04-21T08:20:37.592Z,32.65
2019-04-21T08:23:13.579Z,32.65
2019-04-21T08:25:46.090Z,32.88
2019-04-21T08:28:09.145Z,33.39
2019-04-21T08:30:43.188Z,33.25
2019-04-21T08:36:07.992Z,32.97
2019-04-21T08:38:15.057Z,34.67
2019-04-21T08:43:30.025Z,32.47
2019-04-21T08:48:22.818Z,32.93
2019-04-21T08:50:53.862Z,33.53
2019-04-21T08:53:31.929Z,33.02
2019-04-21T08:56:16.463Z,32.64
2019-04-21T08:58:59.042Z,33.43
2019-04-21T09:04:10.711Z,36.31
2019-04-21T09:06:57.236Z,36.94
2019-04-21T09:09:14.747Z,35.09
2019-04-21T09:11:40.384Z,33.87
2019-04-21T09:14:13.870Z,33.84
2019-04-21T09:16:41.209Z,34.02
2019-04-21T09:19:47.042Z,35.09
2019-04-21T09:22:05.716Z,35.98
2019-04-21T09:24:33.077Z,36.96
2019-04-21T09:27:03.730Z,38.02
2019-04-21T09:29:28.308Z,37.58
2019-04-21T09:31:54.499Z,35.81
2019-04-21T09:34:30.104Z,36.50
2019-04-21T09:37:03.430Z,36.37
2019-04-21T09:39:26.255Z,37.34
2019-04-21T09:41:57.674Z,36.03
2019-04-21T09:44:30.870Z,37.31
2019-04-21T09:47:00.619Z,37.28
2019-04-21T09:49:31.287Z,37.76
2019-04-21T09:51:59.845Z,38.04
2019-04-21T09:54:33.659Z,36.83
2019-04-21T09:57:05.856Z,36.79
2019-04-21T09:59:37.109Z,36.53
2019-04-21T10:02:09.740Z,37.32
2019-04-21T10:04:33.790Z,38.07
2019-04-21T10:07:04.492Z,36.55
2019-04-21T10:09:35.447Z,37.45
2019-04-21T10:12:05.290Z,38.20
2019-04-21T10:14:36.516Z,38.26
2019-04-21T10:17:24.791Z,37.86
2019-04-21T10:19:55.110Z,38.31
2019-04-21T10:22:24.676Z,37.60
2019-04-21T10:24:54.349Z,37.91
2019-04-21T10:27:25.249Z,36.47
2019-04-21T10:29:56.003Z,37.04
2019-04-21T10:32:25.544Z,37.03
2019-04-21T10:34:55.158Z,35.97
2019-04-21T10:37:40.117Z,37.03
2019-04-21T10:39:55.856Z,36.60
2019-04-21T10:42:25.397Z,36.63
2019-04-21T10:44:54.841Z,36.92
2019-04-21T10:47:24.779Z,36.07
2019-04-21T10:49:54.921Z,35.32
2019-04-21T10:52:43.275Z,36.16
2019-04-21T10:55:32.152Z,35.97
2019-04-21T10:58:02.683Z,35.63
2019-04-21T11:00:32.399Z,37.96
2019-04-21T11:03:19.617Z,36.83
2019-04-21T11:05:50.500Z,35.95
2019-04-21T11:08:27.965Z,38.06
2019-04-21T11:10:51.880Z,37.34
2019-04-21T11:13:21.383Z,36.54
2019-04-21T11:15:50.946Z,36.46
2019-04-21T11:18:20.321Z,36.16
2019-04-21T11:20:51.022Z,36.04
2019-04-21T11:23:22.415Z,37.19
2019-04-21T11:25:52.018Z,37.85
2019-04-21T11:28:22.777Z,35.84
2019-04-21T11:30:53.089Z,36.60
2019-04-21T11:33:22.890Z,36.18
2019-04-21T11:35:53.195Z,36.84
2019-04-21T11:38:35.224Z,37.13
2019-04-21T11:41:04.007Z,37.04
2019-04-21T11:43:33.313Z,37.20
2019-04-21T11:46:02.683Z,38.73
2019-04-21T11:48:32.521Z,37.77
2019-04-21T11:51:01.947Z,35.64
2019-04-21T11:53:32.783Z,37.11
2019-04-21T11:56:02.852Z,38.62
2019-04-21T11:58:32.426Z,36.53
2019-04-21T12:01:03.318Z,37.49
2019-04-21T12:03:33.616Z,37.59
2019-04-21T12:06:03.703Z,37.44
2019-04-21T12:08:40.469Z,35.79
2019-04-21T12:11:05.277Z,36.79
2019-04-21T12:13:36.114Z,35.76
2019-04-21T12:16:07.207Z,37.61
2019-04-21T12:18:36.842Z,36.79
2019-04-21T12:21:07.415Z,37.00
2019-04-21T12:23:36.831Z,38.90
2019-04-21T12:26:07.348Z,39.22
2019-04-21T12:28:37.645Z,38.31
2019-04-21T12:31:21.240Z,38.20
2019-04-21T12:33:56.147Z,35.78
2019-04-21T12:36:25.693Z,37.15
2019-04-21T12:38:58.238Z,37.13
2019-04-21T12:41:26.682Z,36.90
2019-04-21T12:43:56.963Z,36.44
2019-04-21T12:46:27.416Z,34.30
2019-04-21T12:48:58.002Z,36.22
2019-04-21T12:51:28.042Z,35.26
2019-04-21T12:53:57.623Z,36.38
2019-04-21T12:56:27.517Z,34.90
2019-04-21T12:58:57.662Z,34.36
2019-04-21T13:01:27.428Z,34.74
2019-04-21T13:03:57.808Z,35.32
2019-04-21T13:06:27.781Z,35.99
2019-04-21T13:09:03.358Z,35.31
2019-04-21T13:11:28.885Z,35.29
2019-04-21T13:13:59.765Z,34.31
2019-04-21T13:16:29.554Z,33.86
2019-04-21T13:18:59.531Z,34.35
2019-04-21T13:21:29.925Z,35.64
2019-04-21T13:24:00.872Z,34.65
2019-04-21T13:26:42.465Z,34.89
2019-04-21T13:29:02.687Z,36.00
2019-04-21T13:31:32.159Z,35.38
2019-04-21T13:34:02.189Z,34.97
2019-04-21T13:36:31.928Z,34.99
2019-04-21T13:42:02.873Z,36.23
2019-04-21T13:44:23.495Z,35.19
2019-04-21T13:46:54.439Z,35.89
2019-04-21T13:49:25.271Z,37.10
2019-04-21T13:51:56.041Z,36.26
2019-04-21T13:54:27.405Z,36.95
2019-04-21T13:56:58.509Z,35.61
2019-04-21T13:59:28.625Z,34.86
2019-04-21T14:01:58.515Z,34.64
2019-04-21T14:04:27.735Z,33.95
2019-04-21T14:06:58.297Z,32.22
2019-04-21T14:09:37.934Z,33.79
2019-04-21T14:11:59.142Z,33.63
2019-04-21T14:14:28.617Z,33.43
2019-04-21T14:16:58.307Z,33.00
2019-04-21T14:19:27.846Z,33.81
2019-04-21T14:21:57.162Z,34.13
2019-04-21T14:24:26.795Z,33.52
2019-04-21T14:26:56.363Z,34.14
2019-04-21T14:29:25.820Z,33.56
2019-04-21T14:31:56.045Z,32.23
2019-04-21T14:34:25.993Z,32.27
2019-04-21T14:36:56.814Z,33.22
2019-04-21T14:39:26.436Z,33.84
2019-04-21T14:41:56.173Z,32.12
2019-04-21T14:44:27.101Z,33.57
2019-04-21T14:47:05.006Z,33.69
2019-04-21T14:49:57.361Z,32.36
2019-04-21T14:52:30.832Z,32.89
2019-04-21T14:55:14.440Z,32.79
2019-04-21T14:57:45.123Z,32.63
2019-04-21T15:00:19.024Z,33.37
2019-04-21T15:02:49.634Z,33.38
2019-04-21T15:05:19.766Z,32.62
2019-04-21T15:07:49.306Z,32.60
2019-04-21T15:10:23.810Z,31.29
2019-04-21T15:12:49.784Z,31.92
2019-04-21T15:15:20.147Z,31.55
2019-04-21T15:17:49.670Z,31.79
2019-04-21T15:20:20.202Z,32.11
2019-04-21T15:22:50.363Z,31.20
2019-04-21T15:25:20.173Z,31.40
2019-04-21T15:27:50.871Z,31.02
2019-04-21T15:30:20.749Z,31.29
2019-04-21T15:32:50.589Z,30.69
2019-04-21T15:35:21.365Z,29.75
2019-04-21T15:37:51.805Z,29.09
2019-04-21T15:40:33.730Z,29.01
2019-04-21T15:42:52.931Z,27.39
2019-04-21T15:45:22.270Z,27.39
2019-04-21T15:47:51.949Z,27.73
2019-04-21T15:50:23.062Z,27.87
2019-04-21T15:52:54.106Z,28.03
2019-04-21T15:55:50.780Z,27.45
2019-04-21T15:58:54.587Z,27.03
2019-04-21T16:01:30.281Z,26.10
2019-04-21T16:04:00.987Z,25.52
2019-04-21T16:06:31.937Z,25.81
2019-04-21T16:09:04.357Z,25.90
2019-04-21T16:11:33.644Z,26.26
2019-04-21T16:14:05.877Z,26.39
2019-04-21T16:16:36.162Z,26.51
2019-04-21T16:19:06.213Z,26.49
2019-04-21T16:21:40.030Z,26.51
2019-04-21T16:24:06.862Z,25.98
2019-04-21T16:26:36.107Z,25.52
2019-04-21T16:29:05.494Z,25.61
2019-04-21T16:31:35.981Z,25.53
2019-04-21T16:34:07.157Z,25.81
2019-04-21T16:36:37.959Z,25.54
2019-04-21T16:39:09.497Z,25.17
2019-04-21T16:41:40.280Z,25.21
2019-04-21T16:44:11.190Z,24.91
2019-04-21T16:46:41.295Z,25.02
2019-04-21T16:49:11.829Z,25.02
2019-04-21T16:51:42.294Z,24.80
2019-04-21T16:54:20.291Z,24.68
2019-04-21T16:57:08.202Z,24.35
2019-04-21T16:59:44.347Z,24.42
2019-04-21T17:02:14.495Z,24.31
2019-04-21T17:04:44.384Z,24.34
2019-04-21T17:07:14.994Z,24.17
2019-04-21T17:09:44.495Z,24.28
2019-04-21T17:12:15.953Z,23.97
2019-04-21T17:14:59.706Z,23.64
2019-04-21T17:17:37.188Z,23.29
2019-04-21T17:19:50.632Z,23.29
2019-04-21T17:22:19.585Z,23.23
2019-04-21T17:24:50.427Z,23.04
2019-04-21T17:27:20.784Z,22.76
2019-04-21T17:29:50.730Z,22.53
2019-04-21T17:32:20.438Z,22.51
2019-04-21T17:34:50.103Z,22.45
2019-04-21T17:37:22.052Z,22.20
2019-04-21T17:39:50.433Z,22.07
2019-04-21T17:42:33.025Z,21.97
2019-04-21T17:44:53.074Z,21.75
2019-04-21T17:47:37.031Z,20.99
2019-04-21T17:53:51.982Z,20.41
2019-04-21T17:56:48.127Z,20.08
2019-04-21T17:59:28.159Z,19.98
2019-04-21T18:02:05.078Z,19.70
2019-04-21T18:04:57.991Z,19.34
2019-04-21T18:07:47.803Z,19.10
2019-04-21T18:10:27.328Z,18.77
2019-04-21T18:13:01.323Z,18.46
2019-04-21T18:15:49.332Z,18.29
2019-04-21T18:18:06.312Z,17.89
2019-04-21T18:20:56.734Z,17.64
2019-04-21T18:26:09.294Z,17.40
2019-04-21T18:28:40.998Z,16.99
2019-04-21T18:31:20.872Z,16.80
2019-04-21T18:34:14.780Z,16.60
2019-04-21T18:37:14.805Z,16.27
2019-04-21T18:40:02.449Z,15.93
2019-04-21T18:42:46.416Z,15.57
2019-04-21T18:45:51.871Z,14.97
2019-04-21T18:48:18.960Z,14.57
2019-04-21T18:51:32.981Z,14.42
2019-04-21T18:54:43.536Z,14.32
2019-04-21T18:57:20.486Z,14.17
2019-04-21T18:59:46.921Z,13.95
2019-04-21T19:02:36.811Z,13.90
2019-04-21T19:05:11.503Z,13.79
2019-04-21T19:08:14.836Z,13.55
2019-04-21T19:11:03.939Z,13.47
2019-04-21T19:17:33.492Z,12.90
2019-04-21T19:20:20.590Z,12.58
2019-04-21T19:23:27.013Z,12.28
2019-04-21T19:26:29.823Z,12.46
2019-04-21T19:29:45.208Z,12.43
2019-04-21T19:32:11.943Z,12.05
2019-04-21T19:34:49.044Z,12.01
2019-04-21T19:37:41.058Z,11.89
2019-04-21T19:40:35.349Z,11.83
2019-04-21T19:43:34.177Z,11.66
2019-04-21T19:46:19.312Z,11.77
2019-04-21T19:49:17.225Z,11.64
2019-04-21T19:51:36.477Z,11.60
2019-04-21T19:54:26.877Z,11.57
2019-04-21T19:57:03.229Z,11.37
2019-04-21T19:59:55.905Z,11.40
2019-04-21T20:02:30.123Z,11.14
2019-04-21T20:05:34.995Z,11.06
2019-04-21T20:08:14.242Z,11.09
2019-04-21T20:11:00.648Z,11.14
2019-04-21T20:13:45.414Z,11.22
2019-04-21T20:16:33.902Z,11.27
2019-04-21T20:18:45.727Z,11.13
2019-04-21T20:21:20.761Z,11.12
2019-04-21T20:24:23.280Z,11.00
2019-04-21T20:27:19.844Z,10.86
2019-04-21T20:30:40.238Z,10.93
2019-04-21T20:36:16.871Z,10.75
2019-04-21T20:38:50.117Z,10.80
2019-04-21T20:41:48.290Z,10.68
2019-04-21T20:44:37.357Z,11.01
2019-04-21T20:47:20.038Z,10.77
2019-04-21T20:50:09.474Z,10.65
2019-04-21T20:52:53.810Z,10.61
2019-04-21T20:55:37.938Z,10.95
2019-04-21T20:58:25.386Z,10.72
2019-04-21T21:03:50.231Z,10.72
2019-04-21T21:06:21.880Z,10.42
2019-04-21T21:09:25.349Z,10.50
2019-04-21T21:14:36.408Z,10.57
2019-04-21T21:17:52.145Z,10.63
2019-04-21T21:20:23.224Z,10.71
2019-04-21T21:22:58.371Z,10.77
2019-04-21T21:25:54.454Z,10.78
2019-04-21T21:28:41.550Z,10.70
2019-04-21T21:31:37.165Z,10.75
2019-04-21T21:34:24.227Z,10.55
2019-04-21T21:37:15.939Z,10.42
2019-04-21T21:39:58.424Z,10.46
2019-04-21T21:42:34.275Z,10.46
2019-04-21T21:45:22.351Z,10.45
2019-04-21T21:48:20.120Z,10.52
2019-04-21T21:51:05.809Z,10.58
2019-04-21T21:54:11.679Z,10.38
2019-04-21T21:56:54.384Z,10.28
2019-04-21T22:00:02.560Z,10.05
2019-04-21T22:02:45.422Z,10.06
2019-04-21T22:05:44.571Z,10.03
2019-04-21T22:08:16.349Z,10.08
2019-04-21T22:10:59.303Z,9.99
2019-04-21T22:13:43.606Z,9.83
2019-04-21T22:16:38.815Z,9.72
2019-04-21T22:19:23.689Z,9.79
2019-04-21T22:21:57.817Z,9.79
2019-04-21T22:24:50.746Z,9.72
2019-04-21T22:27:21.278Z,9.71
2019-04-21T22:30:24.699Z,9.71
2019-04-21T22:33:22.774Z,9.57
2019-04-21T22:36:32.999Z,9.64
2019-04-21T22:39:20.826Z,9.64
2019-04-21T22:42:11.152Z,9.66
2019-04-21T22:45:09.485Z,9.72
2019-04-21T22:48:14.059Z,9.67
2019-04-21T22:51:20.632Z,9.70
2019-04-21T22:54:20.770Z,9.56
2019-04-21T22:57:14.727Z,9.50
2019-04-21T23:00:15.470Z,9.26
2019-04-21T23:03:20.577Z,9.24
2019-04-21T23:06:19.275Z,9.22
2019-04-21T23:09:04.492Z,9.30
2019-04-21T23:12:03.178Z,9.14
2019-04-21T23:15:16.548Z,9.20
2019-04-21T23:18:26.008Z,9.12
2019-04-21T23:21:36.199Z,9.16
2019-04-21T23:24:56.150Z,9.40
2019-04-21T23:27:57.425Z,9.60
2019-04-21T23:30:54.759Z,9.52
2019-04-21T23:33:34.467Z,9.53
2019-04-21T23:36:33.621Z,9.48
2019-04-21T23:39:41.492Z,9.57
2019-04-21T23:42:22.528Z,9.52
2019-04-21T23:45:23.931Z,9.56
2019-04-21T23:48:34.897Z,9.64
2019-04-21T23:51:43.491Z,9.57
2019-04-21T23:54:31.433Z,9.61
2019-04-21T23:57:40.902Z,9.56
